Impacts TAF Board INFO
FOR SITUATIONAL AWARENESS. NOT TO BE USED FOR FLIGHT PLANNING PURPOSES.
IDs:

KIAH - Houston/Bush Intl, TX, US

Issued at 1458 UTC 14 Dec 2017
Updated at 1708 UTC 14 Dec 2017
Potential Impact None Slight Moderate High
Time1653Z 14/18Z 14/19Z 14/20Z 14/21Z 14/22Z 14/23Z 15/00Z 15/01Z 15/02Z 15/03Z 15/04Z 15/05Z 15/06Z>>
Type OBS PRVL PRVL PRVL PRVL PRVL PRVL PRVL PRVL PRVL PRVL PRVL PRVL PRVL
VIS 10 >6 >6 >6 >6 >6 >6 >6 >6 >6 >6 >6 >6 >6
CIG 220 250 250 130 130 130 150 150 150 150 150 150 150 150
Cover OVC OVC OVC OVC OVC OVC OVC OVC OVC OVC OVC OVC OVC OVC
FltCat VFR VFR VFR VFR VFR VFR VFR VFR VFR VFR VFR VFR VFR VFR
WX -- -- -- -- -- -- -- -- -- -- -- -- -- --
WDir VRB 260 260 300 300 300 360 360 360 360 360 360 360 360
WSpd 0 4 4 6 6 6 6 6 6 6 6 6 6 6
WGst -- -- -- -- -- -- -- -- -- -- -- -- -- --

Raw TAF
KIAH 141458Z 1415/1518 26004KT P6SM SCT130 OVC250
  FM142000 30006KT P6SM BKN130 OVC250
  FM142300 36006KT P6SM OVC150
  FM150900 01010KT P6SM OVC120


Raw METAR
KIAH 141653Z 00000KT 10SM FEW025 OVC220 15/08 A3001 RMK AO2 SLP162 T01500078
KIAH 141553Z 00000KT 10SM OVC210 13/08 A3001 RMK AO2 SLP161 T01280083
KIAH 141453Z 00000KT 10SM FEW130 OVC230 11/07 A2999 RMK AO2 SLP157 T01110072 53015

METAR Board
Radar Display
Forecast Discussion

FOR SITUATIONAL AWARENESS. NOT TO BE USED FOR FLIGHT PLANNING PURPOSES.